createdAt,value
2019-02-04T00:01:24.782Z,14.57
2019-02-04T00:04:14.571Z,14.33
2019-02-04T00:06:56.916Z,14.17
2019-02-04T00:09:46.484Z,13.70
2019-02-04T00:12:28.888Z,14.10
2019-02-04T00:15:18.452Z,14.53
2019-02-04T00:18:00.988Z,14.53
2019-02-04T00:20:50.491Z,14.30
2019-02-04T00:23:34.129Z,15.83
2019-02-04T00:26:51.285Z,14.73
2019-02-04T00:29:28.104Z,15.73
2019-02-04T00:32:17.665Z,15.53
2019-02-04T00:35:01.075Z,13.93
2019-02-04T00:37:50.677Z,14.47
2019-02-04T00:40:32.928Z,14.40
2019-02-04T00:43:22.470Z,15.73
2019-02-04T00:46:05.179Z,14.70
2019-02-04T00:52:01.497Z,15.57
2019-02-04T00:54:51.041Z,15.60
2019-02-04T01:00:48.826Z,14.57
2019-02-04T01:03:49.159Z,14.30
2019-02-04T01:06:38.688Z,14.57
2019-02-04T01:09:22.270Z,14.60
2019-02-04T01:15:18.679Z,13.73
2019-02-04T01:18:08.175Z,15.13
2019-02-04T01:20:53.824Z,14.60
2019-02-04T01:23:43.329Z,15.73
2019-02-04T01:26:25.915Z,14.57
2019-02-04T01:29:15.438Z,14.00
2019-02-04T01:31:57.840Z,13.70
2019-02-04T01:34:48.998Z,14.60
2019-02-04T01:37:30.962Z,13.90
2019-02-04T01:43:48.497Z,14.37
2019-02-04T01:49:46.463Z,14.07
2019-02-04T01:52:35.981Z,14.10
2019-02-04T01:55:18.513Z,14.03
2019-02-04T02:01:14.267Z,13.63
2019-02-04T02:04:06.126Z,14.50
2019-02-04T02:06:48.427Z,14.27
2019-02-04T02:12:46.137Z,13.13
2019-02-04T02:15:35.731Z,14.13
2019-02-04T02:18:18.221Z,13.50
2019-02-04T02:21:07.737Z,14.37
2019-02-04T02:23:49.585Z,13.37
2019-02-04T02:26:57.987Z,13.07
2019-02-04T02:29:40.512Z,12.90
2019-02-04T02:32:30.114Z,12.13
2019-02-04T02:35:12.259Z,13.93
2019-02-04T02:38:01.758Z,13.17
2019-02-04T02:40:43.649Z,12.60
2019-02-04T02:46:41.077Z,12.23
2019-02-04T02:49:30.568Z,12.13
2019-02-04T02:52:12.314Z,13.70
2019-02-04T02:55:01.983Z,12.17
2019-02-04T02:57:44.366Z,12.70
2019-02-04T03:00:34.180Z,12.67
2019-02-04T03:03:16.411Z,12.07
2019-02-04T03:06:05.911Z,13.10
2019-02-04T03:08:48.418Z,13.17
2019-02-04T03:11:37.937Z,13.00
2019-02-04T03:14:19.985Z,11.60
2019-02-04T03:17:09.466Z,12.73
2019-02-04T03:19:54.038Z,12.37
2019-02-04T03:25:51.409Z,12.70
2019-02-04T03:28:40.990Z,11.97
2019-02-04T03:31:24.467Z,13.03
2019-02-04T03:34:14.054Z,11.90
2019-02-04T03:36:56.470Z,12.37
2019-02-04T03:42:52.462Z,12.43
2019-02-04T03:46:00.937Z,11.90
2019-02-04T03:48:44.234Z,11.77
2019-02-04T03:52:13.161Z,11.17
2019-02-04T03:54:55.743Z,11.40
2019-02-04T03:57:45.728Z,12.50
2019-02-04T04:00:28.640Z,11.60
2019-02-04T04:03:11.192Z,12.77
2019-02-04T04:06:00.726Z,11.13
2019-02-04T04:08:43.002Z,12.17
2019-02-04T04:11:32.732Z,12.40
2019-02-04T04:14:15.135Z,12.13
2019-02-04T04:17:04.831Z,11.90
2019-02-04T04:19:49.414Z,11.33
2019-02-04T04:22:31.349Z,11.83
2019-02-04T04:25:20.843Z,11.73
2019-02-04T04:28:03.456Z,11.90
2019-02-04T04:30:53.097Z,12.87
2019-02-04T04:33:35.419Z,12.03
2019-02-04T04:36:24.910Z,12.10
2019-02-04T04:39:07.484Z,12.10
2019-02-04T04:48:32.885Z,11.50
2019-02-04T04:51:14.623Z,11.37
2019-02-04T04:57:19.352Z,11.57
2019-02-04T05:00:01.418Z,11.80
2019-02-04T05:02:43.855Z,12.27
2019-02-04T05:05:33.473Z,12.47
2019-02-04T05:08:15.666Z,11.83
2019-02-04T05:11:05.451Z,11.73
2019-02-04T05:13:47.205Z,12.70
2019-02-04T05:16:55.665Z,12.00
2019-02-04T05:19:37.857Z,12.17
2019-02-04T05:22:46.278Z,12.47
2019-02-04T05:25:28.894Z,11.73
2019-02-04T05:31:19.907Z,12.67
2019-02-04T05:34:01.509Z,12.90
2019-02-04T05:37:09.899Z,13.00
2019-02-04T05:39:52.304Z,11.80
2019-02-04T05:43:00.879Z,12.77
2019-02-04T05:45:45.222Z,11.87
2019-02-04T05:48:34.755Z,11.33
2019-02-04T05:51:17.373Z,11.17
2019-02-04T05:54:07.047Z,13.00
2019-02-04T05:56:48.801Z,13.23
2019-02-04T06:02:44.854Z,11.63
2019-02-04T06:05:34.500Z,12.23
2019-02-04T06:08:17.925Z,10.67
2019-02-04T06:11:07.820Z,11.27
2019-02-04T06:13:50.089Z,13.27
2019-02-04T06:19:45.965Z,12.77
2019-02-04T06:28:13.648Z,12.37
2019-02-04T06:37:00.005Z,13.23
2019-02-04T06:45:48.972Z,12.23
2019-02-04T06:54:47.973Z,12.50
2019-02-04T06:57:37.767Z,13.50
2019-02-04T07:00:21.543Z,12.87
2019-02-04T07:03:06.318Z,12.97
2019-02-04T07:05:55.856Z,13.33
2019-02-04T07:08:37.500Z,13.47
2019-02-04T07:14:14.291Z,12.03
2019-02-04T07:17:03.853Z,12.50
2019-02-04T07:19:46.333Z,13.03
2019-02-04T07:25:46.281Z,11.53
2019-02-04T07:28:36.175Z,12.57
2019-02-04T07:31:17.964Z,13.53
2019-02-04T07:34:07.576Z,13.87
2019-02-04T07:36:50.085Z,13.43
2019-02-04T07:39:39.593Z,13.47
2019-02-04T07:42:23.900Z,14.87
2019-02-04T07:45:06.124Z,14.17
2019-02-04T07:47:55.709Z,14.20
2019-02-04T07:50:37.310Z,13.30
2019-02-04T07:53:45.749Z,11.83
2019-02-04T07:56:28.186Z,15.13
2019-02-04T08:02:25.007Z,13.80
2019-02-04T08:05:14.684Z,14.20
2019-02-04T08:10:52.762Z,13.47
2019-02-04T08:13:42.372Z,14.70
2019-02-04T08:16:25.047Z,14.83
2019-02-04T08:19:52.687Z,14.17
2019-02-04T08:22:34.907Z,13.03
2019-02-04T08:25:26.007Z,13.00
2019-02-04T08:28:08.727Z,12.07
2019-02-04T08:30:58.251Z,13.80
2019-02-04T08:33:40.489Z,12.73
2019-02-04T08:42:29.524Z,12.80
2019-02-04T08:45:12.090Z,12.47
2019-02-04T08:47:54.443Z,12.80
2019-02-04T08:50:44.064Z,12.73
2019-02-04T08:53:26.436Z,12.93
2019-02-04T08:56:15.976Z,10.97
2019-02-04T08:58:58.516Z,11.07
2019-02-04T09:01:48.029Z,12.80
2019-02-04T09:04:37.587Z,12.63
2019-02-04T09:07:21.821Z,13.13
2019-02-04T09:10:51.475Z,14.40
2019-02-04T09:13:33.680Z,13.30
2019-02-04T09:16:42.240Z,13.63
2019-02-04T09:19:24.430Z,14.63
2019-02-04T09:25:41.110Z,13.77
2019-02-04T09:28:49.635Z,13.97
2019-02-04T09:31:40.751Z,13.40
2019-02-04T09:34:22.930Z,12.47
2019-02-04T09:40:05.895Z,13.50
2019-02-04T09:43:06.789Z,12.80
2019-02-04T09:45:56.292Z,11.83
2019-02-04T09:48:38.588Z,11.13
2019-02-04T09:51:28.105Z,11.07
2019-02-04T09:54:10.341Z,10.57
2019-02-04T09:56:59.874Z,10.27
2019-02-04T09:59:42.217Z,10.27
2019-02-04T10:05:32.502Z,9.50
2019-02-04T10:11:28.894Z,8.80
2019-02-04T10:17:21.704Z,10.37
2019-02-04T10:20:04.741Z,7.73
2019-02-04T10:22:54.288Z,7.27
2019-02-04T10:25:37.309Z,6.67
2019-02-04T10:31:19.078Z,9.23
2019-02-04T10:37:30.620Z,11.57
2019-02-04T10:40:15.620Z,11.93
2019-02-04T10:43:05.293Z,12.10
2019-02-04T10:45:48.831Z,12.47
2019-02-04T10:48:38.348Z,13.50
2019-02-04T10:51:20.422Z,12.83
2019-02-04T10:54:09.956Z,12.47
2019-02-04T10:56:52.338Z,13.50
2019-02-04T10:59:34.450Z,13.07
2019-02-04T11:02:23.971Z,15.33
2019-02-04T11:05:12.561Z,14.03
2019-02-04T11:08:00.895Z,13.30
2019-02-04T11:10:49.373Z,13.03
2019-02-04T11:13:37.265Z,13.67
2019-02-04T11:16:25.432Z,12.43
2019-02-04T11:19:13.532Z,13.33
2019-02-04T11:22:01.520Z,13.23
2019-02-04T11:24:49.975Z,12.77
2019-02-04T11:27:38.168Z,14.37
2019-02-04T11:30:25.880Z,15.30
2019-02-04T11:33:14.601Z,14.10
2019-02-04T11:36:03.287Z,14.60
2019-02-04T11:38:45.725Z,15.47
2019-02-04T11:41:35.258Z,13.90
2019-02-04T11:44:23.756Z,12.70
2019-02-04T11:47:12.352Z,14.30
2019-02-04T11:49:55.177Z,14.57
2019-02-04T11:52:43.725Z,15.50
2019-02-04T11:55:27.087Z,15.40
2019-02-04T11:58:09.519Z,14.97
2019-02-04T12:00:51.829Z,14.77
2019-02-04T12:03:42.226Z,15.13
2019-02-04T12:06:24.827Z,13.87
2019-02-04T12:09:14.273Z,14.97
2019-02-04T12:12:02.529Z,15.10
2019-02-04T12:14:44.761Z,14.57
2019-02-04T12:17:34.379Z,13.53
2019-02-04T12:20:17.202Z,14.57
2019-02-04T12:23:06.612Z,12.60
2019-02-04T12:25:50.795Z,13.70
2019-02-04T12:28:40.335Z,14.03
2019-02-04T12:31:22.658Z,12.43
2019-02-04T12:34:12.186Z,13.43
2019-02-04T12:37:00.415Z,12.80
2019-02-04T12:39:42.930Z,13.13
2019-02-04T12:42:33.124Z,12.17
2019-02-04T12:45:19.224Z,10.80
2019-02-04T12:51:06.248Z,11.03
2019-02-04T12:53:48.204Z,10.73
2019-02-04T12:56:37.687Z,10.67
2019-02-04T12:59:28.511Z,11.57
2019-02-04T13:02:12.292Z,12.27
2019-02-04T13:05:02.085Z,12.20
2019-02-04T13:07:44.672Z,13.50
2019-02-04T13:10:34.296Z,14.20
2019-02-04T13:13:22.770Z,13.80
2019-02-04T13:16:06.455Z,13.43
2019-02-04T13:21:52.902Z,13.13
2019-02-04T13:31:06.271Z,14.20
2019-02-04T13:33:48.680Z,14.37
2019-02-04T13:36:38.591Z,15.07
2019-02-04T13:39:22.221Z,14.07
2019-02-04T13:42:11.786Z,15.43
2019-02-04T13:44:55.601Z,14.43
2019-02-04T13:47:45.362Z,15.60
2019-02-04T13:50:27.559Z,13.30
2019-02-04T13:53:17.130Z,13.13
2019-02-04T13:56:00.060Z,12.53
2019-02-04T13:58:49.901Z,14.33
2019-02-04T14:01:32.428Z,12.77
2019-02-04T14:04:21.962Z,14.17
2019-02-04T14:07:11.499Z,14.33
2019-02-04T14:09:59.085Z,14.27
2019-02-04T14:12:48.118Z,12.63
2019-02-04T14:15:30.830Z,13.40
2019-02-04T14:18:23.363Z,12.27
2019-02-04T14:21:04.369Z,12.03
2019-02-04T14:23:53.994Z,11.50
2019-02-04T14:26:36.447Z,12.90
2019-02-04T14:29:25.992Z,11.97
2019-02-04T14:35:17.632Z,13.10
2019-02-04T14:38:00.322Z,13.83
2019-02-04T14:40:49.866Z,13.03
2019-02-04T14:43:33.563Z,13.20
2019-02-04T14:47:01.234Z,13.03
2019-02-04T14:50:02.767Z,11.90
2019-02-04T14:53:30.474Z,12.20
2019-02-04T14:56:25.576Z,11.20
2019-02-04T14:59:16.618Z,10.93
2019-02-04T15:02:44.557Z,12.20
2019-02-04T15:05:51.748Z,9.93
2019-02-04T15:09:22.266Z,10.17
2019-02-04T15:12:49.328Z,10.13
2019-02-04T15:15:51.243Z,9.80
2019-02-04T15:19:19.287Z,9.40
2019-02-04T15:22:46.917Z,10.37
2019-02-04T15:25:51.568Z,9.80
2019-02-04T15:29:06.710Z,10.33
2019-02-04T15:32:08.097Z,10.70
2019-02-04T15:35:25.512Z,9.87
2019-02-04T15:38:32.303Z,10.40
2019-02-04T15:41:46.768Z,10.13
2019-02-04T15:44:47.595Z,10.23
2019-02-04T15:48:17.088Z,10.03
2019-02-04T15:51:20.568Z,9.77
2019-02-04T15:54:10.957Z,9.90
2019-02-04T15:56:53.140Z,10.30
2019-02-04T15:59:42.654Z,9.70
2019-02-04T16:02:24.889Z,10.20
2019-02-04T16:05:15.441Z,10.93
2019-02-04T16:08:05.219Z,9.70
2019-02-04T16:10:54.783Z,10.03
2019-02-04T16:13:38.857Z,10.07
2019-02-04T16:16:28.388Z,9.50
2019-02-04T16:19:11.608Z,10.43
2019-02-04T16:21:53.340Z,10.03
2019-02-04T16:27:50.589Z,9.80
2019-02-04T16:30:40.232Z,10.23
2019-02-04T16:33:21.928Z,10.23
2019-02-04T16:36:11.624Z,9.83
2019-02-04T16:38:54.890Z,10.03
2019-02-04T16:44:53.093Z,10.33
2019-02-04T16:47:54.009Z,9.60
2019-02-04T16:53:44.225Z,10.07
2019-02-04T16:56:26.220Z,11.13
2019-02-04T16:59:07.988Z,10.27
2019-02-04T17:01:57.835Z,9.33
2019-02-04T17:04:47.501Z,9.87
2019-02-04T17:10:45.298Z,9.50
2019-02-04T17:13:34.859Z,9.40
2019-02-04T17:16:17.250Z,9.47
2019-02-04T17:22:08.389Z,9.47
2019-02-04T17:24:58.199Z,10.00
2019-02-04T17:27:40.285Z,9.37
2019-02-04T17:30:29.942Z,11.07
2019-02-04T17:33:12.129Z,9.67
2019-02-04T17:39:29.736Z,8.97
2019-02-04T17:42:19.326Z,9.30
2019-02-04T17:45:01.604Z,7.60
2019-02-04T17:47:51.761Z,5.47
2019-02-04T17:50:34.648Z,5.00
2019-02-04T17:53:33.995Z,4.57
2019-02-04T17:56:08.555Z,3.80
2019-02-04T17:58:58.094Z,3.90
2019-02-04T18:01:43.121Z,4.70
2019-02-04T18:04:51.102Z,4.77
2019-02-04T18:07:32.914Z,6.37
2019-02-04T18:10:24.621Z,6.33
2019-02-04T18:13:09.013Z,6.03
2019-02-04T18:15:58.496Z,8.13
2019-02-04T18:18:41.288Z,8.83
2019-02-04T18:21:31.213Z,9.27
2019-02-04T18:24:14.465Z,9.13
2019-02-04T18:30:19.215Z,10.80
2019-02-04T18:33:04.202Z,11.00
2019-02-04T18:35:54.589Z,10.27
2019-02-04T18:38:37.631Z,11.07
2019-02-04T18:44:55.256Z,10.30
2019-02-04T18:47:45.061Z,9.93
2019-02-04T18:50:37.508Z,10.10
2019-02-04T18:53:19.611Z,9.80
2019-02-04T18:56:09.284Z,9.30
2019-02-04T18:58:51.584Z,9.10
2019-02-04T19:01:46.408Z,8.83
2019-02-04T19:04:28.690Z,9.30
2019-02-04T19:10:20.748Z,7.00
2019-02-04T19:13:10.340Z,6.33
2019-02-04T19:15:54.041Z,7.67
2019-02-04T19:18:46.280Z,9.27
2019-02-04T19:21:29.158Z,9.70
2019-02-04T19:27:28.192Z,6.10
2019-02-04T19:30:47.714Z,3.57
2019-02-04T19:33:29.582Z,4.87
2019-02-04T19:36:19.351Z,4.27
2019-02-04T19:41:59.635Z,5.13
2019-02-04T19:45:00.506Z,6.33
2019-02-04T19:47:44.599Z,7.00
2019-02-04T19:51:14.136Z,6.80
2019-02-04T19:53:57.540Z,7.30
2019-02-04T19:56:40.072Z,7.70
2019-02-04T19:59:40.980Z,7.27
2019-02-04T20:05:39.539Z,7.20
2019-02-04T20:15:32.894Z,11.10
2019-02-04T20:18:16.974Z,12.20
2019-02-04T20:21:06.867Z,13.03
2019-02-04T20:27:10.041Z,13.63
2019-02-04T20:29:59.794Z,14.97
2019-02-04T20:32:44.364Z,13.87
2019-02-04T20:38:27.365Z,15.37
2019-02-04T20:44:08.475Z,16.20
2019-02-04T20:46:58.539Z,16.03
2019-02-04T20:49:48.426Z,16.60
2019-02-04T20:52:35.410Z,15.90
2019-02-04T20:55:44.164Z,16.73
2019-02-04T20:58:26.869Z,15.37
2019-02-04T21:01:16.494Z,15.87
2019-02-04T21:04:00.814Z,17.00
2019-02-04T21:09:53.537Z,16.10
2019-02-04T21:12:43.529Z,17.07
2019-02-04T21:15:27.769Z,17.97
2019-02-04T21:21:05.321Z,16.47
2019-02-04T21:23:54.857Z,19.23
2019-02-04T21:26:37.218Z,18.83
2019-02-04T21:29:26.733Z,18.37
2019-02-04T21:32:16.283Z,19.87
2019-02-04T21:35:00.413Z,21.33
2019-02-04T21:37:50.109Z,21.27
2019-02-04T21:40:33.504Z,21.27
2019-02-04T21:43:23.022Z,19.70
2019-02-04T21:46:07.258Z,20.73
2019-02-04T21:48:56.764Z,20.97
2019-02-04T21:51:39.453Z,20.50
2019-02-04T21:57:30.260Z,20.53
2019-02-04T22:00:15.341Z,21.70
2019-02-04T22:03:24.752Z,19.57
2019-02-04T22:06:07.122Z,20.60
2019-02-04T22:11:50.933Z,20.17
2019-02-04T22:14:40.463Z,21.43
2019-02-04T22:17:23.060Z,22.97
2019-02-04T22:20:52.555Z,21.40
2019-02-04T22:23:35.773Z,21.37
2019-02-04T22:26:45.837Z,20.70
2019-02-04T22:29:31.005Z,21.27
2019-02-04T22:32:20.701Z,21.07
2019-02-04T22:35:04.723Z,20.93
2019-02-04T22:41:00.773Z,20.20
2019-02-04T22:43:50.334Z,20.13
2019-02-04T22:46:39.995Z,20.27
2019-02-04T22:49:21.813Z,19.07
2019-02-04T22:52:11.606Z,19.70
2019-02-04T22:54:54.211Z,18.20
2019-02-04T22:57:36.357Z,19.10
2019-02-04T23:01:04.336Z,17.87
2019-02-04T23:03:46.899Z,17.77
2019-02-04T23:06:36.529Z,17.47
2019-02-04T23:09:18.747Z,18.13
2019-02-04T23:12:08.354Z,17.27
2019-02-04T23:14:50.116Z,17.13
2019-02-04T23:17:58.563Z,16.63
2019-02-04T23:20:42.546Z,17.73
2019-02-04T23:23:32.206Z,15.97
2019-02-04T23:26:13.994Z,16.40
2019-02-04T23:29:03.545Z,16.07
2019-02-04T23:31:45.949Z,15.60
2019-02-04T23:34:35.867Z,15.13
2019-02-04T23:37:18.025Z,14.90
2019-02-04T23:43:15.387Z,14.10
2019-02-04T23:46:05.117Z,14.87
2019-02-04T23:48:57.008Z,14.13
2019-02-04T23:51:41.017Z,13.87
2019-02-04T23:54:30.651Z,14.10
2019-02-04T23:57:13.009Z,13.70
2019-02-04T23:59:55.088Z,14.13
